Time;durP1;ratioP1;P1;durP2;ratioP2;P2;SDS_P1;SDS_P2;PMS_P1;PMS_P2;Temp;Humidity;BMP_temperature;BMP_pressure;BME280_temperature;BME280_humidity;BME280_pressure;Samples;Min_cycle;Max_cycle;Signal;HPM_P1;HPM_P2
2022/09/25 00:00:27;;;;;;;70.78;51.03;;;19.80;67.80;;;;;;4961743;28;96556;-52
2022/09/25 00:02:54;;;;;;;69.70;50.55;;;19.80;67.90;;;;;;4962244;28;94980;-51
2022/09/25 00:05:20;;;;;;;69.75;50.63;;;19.80;67.90;;;;;;4962121;28;96192;-50
2022/09/25 00:07:45;;;;;;;70.30;50.58;;;19.80;67.80;;;;;;4967408;28;97068;-53
2022/09/25 00:10:11;;;;;;;69.45;50.47;;;19.80;67.80;;;;;;4977257;28;94431;-53
2022/09/25 00:12:37;;;;;;;70.68;51.08;;;19.80;67.80;;;;;;4959080;28;95088;-52
2022/09/25 00:15:04;;;;;;;70.63;51.08;;;19.80;68.00;;;;;;4964376;28;95084;-51
2022/09/25 00:17:30;;;;;;;70.22;50.78;;;19.70;67.80;;;;;;4960626;28;98000;-48
2022/09/25 00:19:55;;;;;;;69.57;50.53;;;19.70;67.80;;;;;;4958786;28;95488;-50
2022/09/25 00:22:23;;;;;;;69.57;50.70;;;19.70;68.00;;;;;;4961003;28;97921;-50
2022/09/25 00:24:49;;;;;;;70.10;50.65;;;19.70;67.90;;;;;;4963191;28;95544;-52
2022/09/25 00:27:17;;;;;;;69.65;50.78;;;19.70;67.80;;;;;;4960808;28;96614;-48
2022/09/25 00:29:42;;;;;;;68.63;50.25;;;19.70;68.50;;;;;;4968148;28;95268;-49
2022/09/25 00:32:10;;;;;;;68.90;50.35;;;19.70;67.80;;;;;;4957709;28;95295;-48
2022/09/25 00:34:37;;;;;;;70.60;50.67;;;19.70;67.70;;;;;;4961765;28;95697;-51
2022/09/25 00:37:04;;;;;;;69.68;50.88;;;19.70;67.70;;;;;;4960118;28;95076;-52
2022/09/25 00:39:30;;;;;;;70.30;50.38;;;19.60;67.70;;;;;;4962196;28;97469;-50
2022/09/25 00:41:56;;;;;;;69.80;50.70;;;19.60;67.80;;;;;;4965594;28;100517;-53
2022/09/25 00:44:40;;;;;;;70.43;50.92;;;19.70;67.70;;;;;;4964515;28;97050;-53
2022/09/25 00:47:07;;;;;;;70.75;50.58;;;19.60;67.70;;;;;;4966503;28;95460;-53
2022/09/25 00:49:33;;;;;;;71.20;51.10;;;19.60;67.70;;;;;;4955621;28;95497;-51
2022/09/25 00:52:05;;;;;;;69.10;50.80;;;19.60;67.70;;;;;;4957580;28;95330;-50
2022/09/25 00:54:35;;;;;;;69.78;50.38;;;19.70;67.60;;;;;;4962502;28;95558;-48
2022/09/25 00:57:05;;;;;;;69.60;50.25;;;19.70;67.50;;;;;;4961708;28;97103;-51
2022/09/25 00:59:36;;;;;;;69.68;50.85;;;19.60;67.60;;;;;;4960755;28;94998;-50
2022/09/25 01:02:01;;;;;;;68.35;50.47;;;19.60;67.70;;;;;;4957986;28;95357;-51
2022/09/25 01:04:31;;;;;;;68.15;50.58;;;19.60;67.70;;;;;;4967306;28;95092;-52
2022/09/25 01:06:58;;;;;;;71.32;51.00;;;19.60;67.60;;;;;;4965348;28;100676;-50
2022/09/25 01:09:24;;;;;;;69.20;50.45;;;19.60;67.60;;;;;;4957437;28;95210;-50
2022/09/25 01:11:50;;;;;;;69.47;50.88;;;19.60;67.60;;;;;;4959424;28;95784;-52
2022/09/25 01:14:16;;;;;;;68.70;50.35;;;19.60;67.50;;;;;;4967426;28;96248;-51
2022/09/25 01:16:44;;;;;;;69.32;49.92;;;19.60;67.50;;;;;;4967514;28;96418;-52
2022/09/25 01:19:36;;;;;;;70.80;50.50;;;19.60;67.40;;;;;;4962155;28;98078;-52
2022/09/25 01:22:17;;;;;;;69.70;50.53;;;19.60;67.30;;;;;;4959595;28;97361;-48
2022/09/25 01:24:49;;;;;;;68.07;50.40;;;19.60;67.40;;;;;;4967434;28;94660;-51
2022/09/25 01:27:31;;;;;;;68.85;50.38;;;19.60;67.40;;;;;;4966597;28;95779;-52
2022/09/25 01:29:57;;;;;;;69.22;50.38;;;19.60;67.30;;;;;;4968094;28;96165;-49
2022/09/25 01:32:32;;;;;;;69.00;50.22;;;19.50;67.40;;;;;;4962547;28;97257;-48
2022/09/25 01:35:19;;;;;;;68.88;50.25;;;19.60;67.30;;;;;;4959351;28;95610;-54
2022/09/25 01:37:53;;;;;;;68.88;50.45;;;19.50;67.30;;;;;;4963577;28;95083;-51
2022/09/25 01:40:42;;;;;;;69.13;50.15;;;19.50;67.30;;;;;;4959147;28;95545;-53
2022/09/25 01:43:19;;;;;;;70.22;50.08;;;19.50;67.40;;;;;;4968775;28;95102;-50
2022/09/25 01:45:53;;;;;;;69.65;50.53;;;19.50;67.40;;;;;;4961373;28;95534;-52
2022/09/25 01:48:30;;;;;;;68.57;50.53;;;19.40;67.40;;;;;;4963178;28;95151;-51
2022/09/25 01:51:00;;;;;;;70.25;50.35;;;19.50;67.30;;;;;;4970250;28;94765;-51
2022/09/25 01:53:33;;;;;;;68.53;50.63;;;19.50;67.10;;;;;;4958977;28;95394;-51
2022/09/25 01:56:13;;;;;;;68.65;50.35;;;19.50;67.10;;;;;;4959478;28;95421;-50
2022/09/25 01:58:48;;;;;;;69.78;50.38;;;19.50;67.10;;;;;;4954630;28;96424;-52
2022/09/25 02:01:31;;;;;;;70.30;50.33;;;19.50;67.10;;;;;;4959441;28;94956;-48
2022/09/25 02:04:02;;;;;;;68.47;50.45;;;19.40;67.20;;;;;;4955456;28;100165;-53
2022/09/25 02:06:31;;;;;;;67.82;50.33;;;19.40;67.20;;;;;;4960718;28;96309;-50
2022/09/25 02:09:03;;;;;;;69.72;50.17;;;19.40;67.10;;;;;;4961590;28;96639;-49
2022/09/25 02:11:37;;;;;;;68.93;50.30;;;19.40;67.10;;;;;;4960597;28;95200;-50
2022/09/25 02:14:18;;;;;;;69.68;50.53;;;19.40;67.10;;;;;;4957699;28;97187;-53
2022/09/25 02:16:49;;;;;;;69.47;50.75;;;19.40;67.30;;;;;;4963280;28;95357;-48
2022/09/25 02:22:18;;;;;;;69.63;50.58;;;19.30;67.20;;;;;;4963573;28;95868;-52
2022/09/25 02:24:49;;;;;;;70.10;50.25;;;19.30;67.10;;;;;;4958850;28;98540;-48
2022/09/25 02:27:17;;;;;;;68.72;50.55;;;19.40;67.00;;;;;;4954980;28;96121;-53
2022/09/25 02:29:43;;;;;;;68.57;50.22;;;19.40;66.90;;;;;;4958987;28;94979;-48
2022/09/25 02:32:11;;;;;;;69.22;50.50;;;19.40;67.00;;;;;;4964999;28;94908;-52
2022/09/25 02:34:38;;;;;;;69.80;50.35;;;19.30;67.00;;;;;;4958299;28;98159;-48
2022/09/25 02:37:11;;;;;;;69.03;49.90;;;19.30;67.00;;;;;;4958429;28;95145;-53
2022/09/25 02:39:37;;;;;;;68.85;50.25;;;19.30;67.00;;;;;;4966924;28;95200;-47
2022/09/25 02:42:18;;;;;;;69.70;50.35;;;19.30;67.10;;;;;;4975699;28;94155;-50
2022/09/25 02:45:13;;;;;;;69.30;50.47;;;19.30;67.00;;;;;;4960247;28;96622;-52
2022/09/25 02:47:48;;;;;;;69.18;50.30;;;19.30;67.00;;;;;;4965519;28;97841;-49
2022/09/25 02:50:20;;;;;;;69.07;50.45;;;19.30;67.00;;;;;;4958874;28;96322;-51
2022/09/25 02:52:55;;;;;;;67.78;50.20;;;19.30;67.00;;;;;;4964650;28;95039;-48
2022/09/25 02:55:39;;;;;;;68.22;49.97;;;19.30;67.00;;;;;;4958335;28;95209;-51
2022/09/25 02:58:39;;;;;;;69.45;50.28;;;19.30;67.00;;;;;;4960065;28;95065;-50
2022/09/25 03:01:07;;;;;;;69.50;50.35;;;19.30;67.00;;;;;;4958110;28;96514;-48
2022/09/25 03:03:36;;;;;;;69.60;50.55;;;19.30;66.80;;;;;;4967643;28;98390;-52
2022/09/25 03:06:02;;;;;;;68.47;49.85;;;19.20;67.00;;;;;;4966255;28;95266;-49
2022/09/25 03:08:37;;;;;;;68.93;50.33;;;19.20;66.90;;;;;;4967127;28;96400;-52
2022/09/25 03:11:07;;;;;;;69.65;50.53;;;19.20;66.90;;;;;;4963805;28;98704;-50
2022/09/25 03:13:34;;;;;;;68.95;50.30;;;19.20;66.90;;;;;;4963180;28;99482;-53
2022/09/25 03:16:18;;;;;;;69.75;50.28;;;19.20;66.90;;;;;;4961141;28;97103;-49
2022/09/25 03:18:44;;;;;;;70.18;50.70;;;19.20;66.80;;;;;;4964376;28;96834;-51
2022/09/25 03:21:10;;;;;;;68.82;50.38;;;19.20;66.90;;;;;;4964585;28;95658;-49
2022/09/25 03:23:36;;;;;;;67.65;49.83;;;19.20;67.00;;;;;;4962365;28;95084;-49
2022/09/25 03:26:03;;;;;;;68.75;50.72;;;19.20;66.90;;;;;;4962810;28;97827;-48
2022/09/25 03:28:29;;;;;;;69.40;50.05;;;19.20;66.90;;;;;;4969185;28;95237;-51
2022/09/25 03:31:03;;;;;;;68.65;50.03;;;19.20;66.90;;;;;;4964743;28;95008;-52
2022/09/25 03:33:33;;;;;;;68.93;50.10;;;19.10;66.80;;;;;;4962512;28;97124;-51
2022/09/25 03:36:20;;;;;;;68.00;50.25;;;19.10;66.90;;;;;;4965262;28;95354;-52
2022/09/25 03:38:48;;;;;;;67.80;50.30;;;19.10;66.80;;;;;;4956046;28;95289;-49
2022/09/25 03:41:18;;;;;;;67.97;50.05;;;19.10;66.80;;;;;;4964222;28;98354;-53
2022/09/25 03:43:44;;;;;;;69.70;50.05;;;19.10;66.80;;;;;;4971389;28;95643;-49
2022/09/25 03:46:12;;;;;;;68.20;49.88;;;19.10;66.80;;;;;;4958337;28;94800;-50
2022/09/25 03:48:39;;;;;;;70.07;50.63;;;19.10;67.60;;;;;;4964670;28;98229;-51
2022/09/25 03:51:05;;;;;;;70.32;50.50;;;19.10;66.80;;;;;;4966741;28;94868;-51
2022/09/25 03:53:32;;;;;;;68.13;50.08;;;19.10;66.70;;;;;;4960094;28;96934;-49
2022/09/25 03:55:58;;;;;;;68.38;50.33;;;19.10;66.60;;;;;;4964313;28;95517;-51
2022/09/25 03:58:24;;;;;;;68.63;50.47;;;19.10;66.60;;;;;;4961661;28;95542;-48
2022/09/25 04:00:50;;;;;;;68.82;50.42;;;19.10;66.60;;;;;;4966690;28;95772;-48
2022/09/25 04:03:16;;;;;;;68.22;50.38;;;19.10;66.60;;;;;;4956572;28;95350;-53
2022/09/25 04:05:42;;;;;;;69.05;50.40;;;19.10;66.50;;;;;;4958369;28;99525;-52
2022/09/25 04:08:08;;;;;;;68.57;50.20;;;19.10;66.60;;;;;;4961637;28;97022;-50
2022/09/25 04:10:37;;;;;;;69.00;50.10;;;19.00;67.50;;;;;;4964910;28;95094;-51
2022/09/25 04:13:05;;;;;;;68.13;50.22;;;19.00;66.60;;;;;;4966655;28;96063;-50
2022/09/25 04:15:31;;;;;;;68.63;50.42;;;19.00;66.60;;;;;;4958472;28;95068;-53
2022/09/25 04:17:57;;;;;;;68.65;50.05;;;19.00;66.70;;;;;;4965818;28;95201;-50
2022/09/25 04:20:22;;;;;;;67.85;50.03;;;19.00;66.60;;;;;;4960188;28;95837;-51
2022/09/25 04:22:48;;;;;;;68.82;50.30;;;19.00;66.50;;;;;;4959473;28;96386;-53
2022/09/25 04:25:14;;;;;;;68.47;50.05;;;19.00;67.20;;;;;;4953088;28;97976;-53
2022/09/25 04:27:40;;;;;;;67.53;50.15;;;19.00;66.50;;;;;;4962127;28;103560;-51
2022/09/25 04:30:06;;;;;;;68.20;50.15;;;19.00;66.40;;;;;;4963092;28;96386;-52
2022/09/25 04:35:16;;;;;;;67.00;50.10;;;19.00;66.40;;;;;;4958227;28;95402;-52
2022/09/25 04:37:42;;;;;;;67.03;49.95;;;19.00;66.40;;;;;;4958343;28;100113;-51
2022/09/25 04:40:08;;;;;;;67.32;50.15;;;19.00;66.40;;;;;;4963824;28;99534;-51
2022/09/25 04:42:34;;;;;;;69.03;50.35;;;19.00;66.50;;;;;;4965049;28;94822;-48
2022/09/25 04:45:00;;;;;;;68.28;50.05;;;19.00;66.40;;;;;;4962189;28;98230;-51
2022/09/25 04:47:30;;;;;;;68.43;49.78;;;19.00;66.40;;;;;;4962035;28;95569;-53
2022/09/25 04:49:55;;;;;;;68.18;50.40;;;19.00;66.40;;;;;;4955518;28;95526;-50
2022/09/25 04:52:21;;;;;;;67.93;49.88;;;18.90;66.30;;;;;;4963456;28;95313;-51
2022/09/25 04:54:47;;;;;;;68.03;50.47;;;19.00;66.50;;;;;;4963584;28;96437;-51
2022/09/25 04:57:15;;;;;;;67.05;49.85;;;19.00;66.50;;;;;;4969539;28;95532;-48
2022/09/25 04:59:41;;;;;;;67.53;50.05;;;19.00;66.30;;;;;;4961592;28;96680;-48
2022/09/25 05:02:06;;;;;;;67.13;50.17;;;19.00;66.40;;;;;;4961213;28;96372;-52
2022/09/25 05:04:32;;;;;;;69.30;50.10;;;19.00;66.30;;;;;;4962389;28;95095;-50
2022/09/25 05:06:58;;;;;;;71.30;50.50;;;19.00;66.20;;;;;;4957089;28;101621;-53
2022/09/25 05:09:24;;;;;;;68.55;50.25;;;18.90;66.40;;;;;;4964216;28;96266;-52
2022/09/25 05:11:49;;;;;;;68.85;50.72;;;18.90;66.40;;;;;;4960838;28;96141;-52
2022/09/25 05:14:15;;;;;;;68.43;50.50;;;18.90;66.40;;;;;;4961154;28;100514;-50
2022/09/25 05:16:41;;;;;;;67.32;50.20;;;18.90;66.40;;;;;;4960868;28;96605;-48
2022/09/25 05:19:07;;;;;;;67.63;50.00;;;18.90;66.40;;;;;;4954070;28;96251;-51
2022/09/25 05:21:32;;;;;;;67.72;49.80;;;18.90;66.40;;;;;;4964008;28;96510;-53
2022/09/25 05:23:58;;;;;;;67.53;50.25;;;18.80;66.50;;;;;;4955367;28;95601;-52
2022/09/25 05:26:25;;;;;;;68.05;50.17;;;18.80;66.50;;;;;;4958705;28;96654;-49
2022/09/25 05:28:51;;;;;;;69.38;50.55;;;18.80;66.40;;;;;;4962324;28;99318;-52
2022/09/25 05:31:16;;;;;;;68.38;50.22;;;18.90;66.30;;;;;;4954279;28;95089;-48
2022/09/25 05:33:42;;;;;;;67.53;50.28;;;18.80;66.30;;;;;;4962962;28;100080;-50
2022/09/25 05:36:09;;;;;;;70.03;50.30;;;18.80;66.30;;;;;;4959026;28;95654;-49
2022/09/25 05:38:37;;;;;;;68.03;50.13;;;18.90;66.30;;;;;;4957415;28;95511;-52
2022/09/25 05:41:04;;;;;;;70.28;50.15;;;18.80;66.30;;;;;;4960476;28;94821;-48
2022/09/25 05:43:31;;;;;;;69.10;50.20;;;18.80;66.20;;;;;;4953729;28;98106;-52
2022/09/25 05:45:58;;;;;;;68.95;50.40;;;18.80;66.20;;;;;;4955190;28;95375;-53
2022/09/25 05:48:24;;;;;;;68.65;50.38;;;18.80;66.20;;;;;;4966088;28;97190;-47
2022/09/25 05:50:51;;;;;;;68.55;50.20;;;18.70;66.20;;;;;;4959539;28;97861;-51
2022/09/25 05:53:16;;;;;;;67.72;50.13;;;18.80;66.40;;;;;;4957012;28;95821;-51
2022/09/25 05:55:51;;;;;;;70.63;50.05;;;18.80;66.20;;;;;;4959764;28;95543;-54
2022/09/25 05:58:17;;;;;;;67.32;50.15;;;18.80;66.20;;;;;;4959534;28;97560;-51
2022/09/25 06:00:43;;;;;;;67.90;50.00;;;18.70;66.20;;;;;;4959815;28;94801;-51
2022/09/25 06:03:09;;;;;;;68.45;50.13;;;18.80;66.10;;;;;;4953924;28;100502;-50
2022/09/25 06:05:35;;;;;;;67.13;49.97;;;18.80;66.00;;;;;;4958581;28;97821;-48
2022/09/25 06:08:01;;;;;;;68.82;50.17;;;18.70;66.00;;;;;;4959507;28;96081;-48
2022/09/25 06:10:27;;;;;;;67.40;50.03;;;18.70;66.10;;;;;;4967572;28;95063;-51
2022/09/25 06:13:03;;;;;;;67.63;50.25;;;18.70;66.20;;;;;;4964470;28;94874;-50
2022/09/25 06:15:36;;;;;;;69.70;50.28;;;18.70;66.00;;;;;;4959636;28;97841;-53
2022/09/25 06:18:07;;;;;;;67.85;50.30;;;18.70;66.10;;;;;;4962157;28;95703;-52
2022/09/25 06:20:33;;;;;;;68.00;49.75;;;18.70;66.00;;;;;;4966738;28;101806;-49
2022/09/25 06:23:02;;;;;;;69.28;50.03;;;18.80;66.00;;;;;;4956499;28;95499;-49
2022/09/25 06:25:31;;;;;;;68.55;50.00;;;18.70;65.90;;;;;;4964897;28;94214;-49
2022/09/25 06:27:59;;;;;;;67.18;50.05;;;18.70;66.10;;;;;;4967068;28;95062;-50
2022/09/25 06:30:27;;;;;;;66.75;49.78;;;18.70;66.10;;;;;;4960016;28;95554;-50
2022/09/25 06:32:57;;;;;;;68.53;49.95;;;18.70;66.10;;;;;;4959289;28;98279;-49
2022/09/25 06:35:22;;;;;;;68.07;50.00;;;18.70;65.90;;;;;;4961500;28;96001;-51
2022/09/25 06:37:48;;;;;;;69.45;50.65;;;18.70;66.00;;;;;;4960283;28;95485;-54
2022/09/25 06:40:14;;;;;;;67.65;50.17;;;18.70;66.00;;;;;;4960266;28;95503;-47
2022/09/25 06:42:40;;;;;;;69.25;50.17;;;18.70;66.80;;;;;;4965031;28;101810;-50
2022/09/25 06:45:07;;;;;;;67.85;50.00;;;18.60;66.90;;;;;;4956197;28;95181;-53
2022/09/25 06:47:33;;;;;;;69.32;50.22;;;18.70;66.40;;;;;;4962704;28;95237;-52
2022/09/25 06:49:59;;;;;;;68.03;49.70;;;18.70;66.10;;;;;;4959264;28;95741;-51
2022/09/25 06:52:25;;;;;;;68.18;49.95;;;18.70;66.00;;;;;;4960145;28;96647;-52
2022/09/25 06:54:51;;;;;;;68.47;50.25;;;;;;;;;;4958888;28;97258;-49
2022/09/25 06:57:20;;;;;;;70.70;50.45;;;18.70;65.30;;;;;;4963688;28;97579;-52
2022/09/25 06:59:45;;;;;;;67.43;49.97;;;18.70;66.00;;;;;;4956572;28;96337;-51
2022/09/25 07:04:55;;;;;;;67.63;50.05;;;18.70;66.00;;;;;;4959044;28;99812;-51
2022/09/25 07:07:23;;;;;;;68.65;50.25;;;18.70;65.90;;;;;;4968572;28;95131;-49
2022/09/25 07:09:48;;;;;;;67.75;50.20;;;18.60;65.90;;;;;;4963777;28;96313;-53
2022/09/25 07:12:16;;;;;;;67.18;50.00;;;18.70;65.90;;;;;;4949683;28;95475;-49
2022/09/25 07:14:43;;;;;;;68.60;50.33;;;18.70;65.90;;;;;;4956137;28;94460;-50
2022/09/25 07:17:09;;;;;;;67.78;50.42;;;18.60;65.80;;;;;;4960770;28;95259;-49
2022/09/25 07:19:34;;;;;;;67.43;50.03;;;18.70;65.80;;;;;;4957630;28;95015;-54
2022/09/25 07:22:00;;;;;;;68.60;50.70;;;18.70;66.00;;;;;;4965118;28;97558;-50
2022/09/25 07:24:26;;;;;;;68.40;50.35;;;18.70;65.80;;;;;;4953105;28;95595;-48
2022/09/25 07:26:51;;;;;;;70.15;50.88;;;18.70;65.80;;;;;;4965317;28;95820;-51
2022/09/25 07:29:18;;;;;;;69.38;50.25;;;18.70;65.80;;;;;;4961566;28;95164;-50
2022/09/25 07:31:44;;;;;;;68.95;50.60;;;18.70;65.90;;;;;;4957890;28;97644;-52
2022/09/25 07:34:11;;;;;;;71.82;50.75;;;18.70;65.80;;;;;;4958162;28;96348;-50
2022/09/25 07:36:38;;;;;;;70.22;50.65;;;18.70;65.80;;;;;;4952686;28;96558;-50
2022/09/25 07:39:04;;;;;;;67.80;50.03;;;18.70;65.70;;;;;;4962826;28;95479;-53
2022/09/25 07:41:30;;;;;;;70.35;50.55;;;18.80;65.80;;;;;;4959230;28;96030;-49
2022/09/25 07:43:57;;;;;;;67.13;50.30;;;18.70;65.60;;;;;;4965630;28;95147;-52
2022/09/25 07:46:27;;;;;;;68.75;50.95;;;18.70;65.60;;;;;;4961412;28;98198;-52
2022/09/25 07:48:53;;;;;;;67.32;49.83;;;18.70;65.70;;;;;;4954370;28;95860;-50
2022/09/25 07:51:24;;;;;;;69.35;50.20;;;18.70;65.60;;;;;;4958986;28;95737;-51
2022/09/25 07:53:49;;;;;;;71.97;50.77;;;18.80;65.50;;;;;;4961531;28;95423;-49
2022/09/25 07:56:16;;;;;;;69.40;50.20;;;18.80;65.60;;;;;;4959704;28;94670;-51
2022/09/25 07:58:42;;;;;;;68.28;50.30;;;18.80;65.60;;;;;;4966953;28;95170;-53
2022/09/25 08:01:11;;;;;;;69.88;50.47;;;18.80;65.40;;;;;;4962845;28;96508;-53
2022/09/25 08:03:37;;;;;;;68.28;50.08;;;18.80;65.40;;;;;;4963831;28;99601;-49
2022/09/25 08:06:10;;;;;;;68.03;50.15;;;18.80;65.50;;;;;;4951788;28;96166;-50
2022/09/25 08:08:36;;;;;;;67.63;50.10;;;18.80;65.50;;;;;;4961380;28;96824;-51
2022/09/25 08:11:08;;;;;;;69.13;50.22;;;18.80;65.50;;;;;;4955944;28;96802;-47
2022/09/25 08:13:37;;;;;;;70.75;50.35;;;18.70;65.30;;;;;;4970537;28;97277;-51
2022/09/25 08:16:03;;;;;;;69.60;50.75;;;18.80;65.70;;;;;;4969091;28;97789;-52
2022/09/25 08:18:29;;;;;;;69.78;50.20;;;18.80;65.70;;;;;;4963981;28;94797;-53
2022/09/25 08:21:01;;;;;;;69.90;50.72;;;18.70;65.70;;;;;;4963636;28;95414;-50
2022/09/25 08:23:27;;;;;;;68.10;50.28;;;18.70;65.80;;;;;;4969142;28;95762;-51
2022/09/25 08:25:53;;;;;;;68.20;50.25;;;18.70;65.70;;;;;;4961020;28;94931;-49
2022/09/25 08:28:18;;;;;;;68.80;50.10;;;18.80;65.70;;;;;;4962149;28;94622;-54
2022/09/25 08:30:44;;;;;;;68.05;49.95;;;18.90;65.50;;;;;;4958835;28;96220;-52
2022/09/25 08:33:13;;;;;;;67.72;49.97;;;19.10;65.10;;;;;;4949894;28;95700;-48
2022/09/25 08:35:40;;;;;;;69.85;50.50;;;19.20;64.70;;;;;;4959557;28;96420;-52
2022/09/25 08:38:11;;;;;;;68.18;50.10;;;19.20;64.30;;;;;;4950488;28;95330;-49
2022/09/25 08:40:45;;;;;;;67.25;49.53;;;19.20;64.90;;;;;;4962319;28;97116;-54
2022/09/25 08:43:17;;;;;;;70.10;50.35;;;19.20;65.30;;;;;;4959898;28;95980;-48
2022/09/25 08:51:21;;;;;;;72.18;50.50;;;19.50;66.20;;;;;;4960620;28;96330;-53
2022/09/25 08:53:47;;;;;;;72.70;50.38;;;19.50;66.40;;;;;;4961450;28;95828;-57
2022/09/25 08:56:14;;;;;;;70.65;50.28;;;19.50;66.40;;;;;;4960074;28;95894;-53
2022/09/25 08:59:03;;;;;;;70.55;50.30;;;19.50;66.30;;;;;;4964412;28;101316;-55
2022/09/25 09:01:45;;;;;;;69.88;50.35;;;19.60;66.00;;;;;;4963726;28;98475;-56
2022/09/25 09:04:33;;;;;;;;;;;19.60;65.90;;;;;;4959887;28;102561;-58
2022/09/25 09:07:05;;;;;;;76.90;51.35;;;19.70;66.40;;;;;;4951703;28;97533;-58
2022/09/25 09:09:39;;;;;;;74.32;51.13;;;19.80;66.50;;;;;;4960056;28;97500;-59
2022/09/25 09:12:20;;;;;;;74.45;51.05;;;19.80;65.90;;;;;;4959487;28;96746;-60
2022/09/25 09:14:49;;;;;;;75.30;50.80;;;19.80;66.10;;;;;;4959512;28;97937;-59
2022/09/25 09:17:23;;;;;;;72.47;50.50;;;20.00;65.60;;;;;;4960502;28;95020;-54
2022/09/25 09:19:58;;;;;;;70.65;50.50;;;20.10;65.20;;;;;;4964980;28;95568;-56
2022/09/25 09:22:30;;;;;;;71.57;50.35;;;20.10;64.90;;;;;;4959780;28;95483;-58
2022/09/25 09:25:05;;;;;;;69.93;50.35;;;20.20;64.70;;;;;;4958539;28;96085;-55
2022/09/25 09:28:11;;;;;;;76.78;50.42;;;20.10;64.80;;;;;;4948512;28;96334;-58
2022/09/25 09:30:46;;;;;;;72.30;50.70;;;20.20;64.60;;;;;;4937489;28;100368;-58
2022/09/25 09:33:33;;;;;;;72.25;50.47;;;20.10;64.60;;;;;;4959690;28;96156;-59
2022/09/25 09:36:18;;;;;;;70.35;50.75;;;20.20;64.50;;;;;;4959345;28;94872;-58
2022/09/25 09:38:47;;;;;;;72.30;50.80;;;20.20;64.60;;;;;;4953737;28;97829;-57
2022/09/25 09:41:32;;;;;;;69.78;50.08;;;20.20;64.50;;;;;;4963939;28;95819;-57
2022/09/25 09:44:22;;;;;;;71.75;50.75;;;20.20;64.60;;;;;;4956950;28;98678;-57
2022/09/25 09:47:01;;;;;;;74.70;50.70;;;20.10;65.00;;;;;;4958767;28;96764;-53
2022/09/25 09:49:45;;;;;;;72.88;50.30;;;20.20;65.20;;;;;;4962537;28;99939;-57
2022/09/25 09:52:47;;;;;;;74.55;50.45;;;20.10;65.20;;;;;;4963085;28;95613;-56
2022/09/25 09:55:37;;;;;;;70.95;50.70;;;20.10;65.70;;;;;;4952077;28;96920;-58
2022/09/25 09:58:10;;;;;;;72.43;50.22;;;20.10;66.00;;;;;;4966409;28;95961;-58
2022/09/25 10:00:38;;;;;;;73.22;51.08;;;20.20;66.30;;;;;;4962628;28;95686;-56
2022/09/25 10:03:27;;;;;;;78.68;50.75;;;20.20;66.40;;;;;;4952952;28;95211;-58
2022/09/25 10:05:57;;;;;;;70.80;50.63;;;20.20;66.40;;;;;;4952752;28;95548;-58
2022/09/25 10:08:23;;;;;;;77.07;50.72;;;20.20;66.60;;;;;;4965286;28;95160;-60
2022/09/25 10:10:52;;;;;;;74.03;50.83;;;20.20;66.60;;;;;;4965232;28;95292;-56
2022/09/25 10:13:32;;;;;;;72.95;50.63;;;20.20;66.60;;;;;;4963957;28;94236;-57
2022/09/25 10:16:10;;;;;;;70.63;50.53;;;20.20;66.70;;;;;;4961931;28;96567;-59
2022/09/25 10:18:51;;;;;;;72.45;50.33;;;20.20;66.50;;;;;;4963503;28;98411;-59
2022/09/25 10:21:20;;;;;;;74.10;50.47;;;20.10;66.30;;;;;;4955687;28;96344;-61
2022/09/25 10:23:45;;;;;;;71.32;50.53;;;20.10;66.20;;;;;;4963243;28;95737;-58
2022/09/25 10:26:29;;;;;;;70.70;50.35;;;20.10;66.50;;;;;;4966074;28;95142;-59
2022/09/25 10:28:59;;;;;;;68.78;50.17;;;20.10;66.40;;;;;;4968258;28;95509;-58
2022/09/25 10:31:32;;;;;;;74.43;50.72;;;20.10;67.00;;;;;;4963852;28;95126;-56
2022/09/25 10:34:03;;;;;;;71.93;50.95;;;20.20;66.40;;;;;;4958781;28;95630;-57
2022/09/25 10:36:38;;;;;;;71.70;50.35;;;20.20;66.30;;;;;;4952083;28;96687;-55
2022/09/25 10:39:06;;;;;;;72.65;50.70;;;20.30;66.00;;;;;;4961458;28;97441;-59
2022/09/25 10:41:42;;;;;;;72.50;50.55;;;20.30;65.90;;;;;;4962946;28;95334;-59
2022/09/25 10:44:27;;;;;;;73.88;50.85;;;20.30;66.00;;;;;;4954473;28;95895;-58
2022/09/25 10:52:50;;;;;;;70.43;50.08;;;20.20;65.90;;;;;;4962133;28;95157;-59
2022/09/25 10:55:24;;;;;;;75.53;50.50;;;20.30;66.60;;;;;;4958278;28;100527;-58
2022/09/25 10:57:57;;;;;;;74.35;51.22;;;20.30;66.50;;;;;;4958349;28;95387;-58
2022/09/25 11:00:25;;;;;;;72.25;50.67;;;20.30;67.00;;;;;;4957742;28;95426;-58
2022/09/25 11:02:56;;;;;;;71.93;50.88;;;20.30;67.40;;;;;;4957613;28;96173;-58
2022/09/25 11:05:30;;;;;;;70.10;50.78;;;20.30;69.10;;;;;;4964784;28;94605;-58
2022/09/25 11:08:00;;;;;;;72.82;51.30;;;20.30;69.50;;;;;;4968212;28;101656;-55
2022/09/25 11:10:32;;;;;;;71.47;50.80;;;20.40;69.70;;;;;;4973123;28;95864;-58
2022/09/25 11:13:03;;;;;;;72.47;51.10;;;20.50;70.30;;;;;;4960690;28;96469;-59
2022/09/25 11:15:29;;;;;;;75.75;51.28;;;20.50;70.70;;;;;;4954941;28;95185;-58
2022/09/25 11:17:57;;;;;;;73.57;50.70;;;20.50;70.70;;;;;;4959902;28;96242;-55
2022/09/25 11:20:30;;;;;;;74.63;50.92;;;20.60;71.10;;;;;;4956405;28;97236;-58
2022/09/25 11:23:25;;;;;;;73.47;51.05;;;20.70;73.00;;;;;;4956962;28;96985;-52
2022/09/25 11:26:16;;;;;;;71.97;50.83;;;20.80;73.50;;;;;;4964397;28;95762;-51
2022/09/25 11:28:51;;;;;;;73.20;50.83;;;20.90;72.20;;;;;;4959568;28;101163;-51
2022/09/25 11:31:39;;;;;;;77.80;51.42;;;21.00;72.30;;;;;;4961196;28;94859;-50
2022/09/25 11:34:34;;;;;;;76.60;50.88;;;21.00;72.40;;;;;;4951834;28;96221;-53
2022/09/25 11:37:09;;;;;;;71.63;50.80;;;21.00;72.30;;;;;;4965502;28;97553;-51
2022/09/25 11:42:50;;;;;;;71.25;50.80;;;21.00;73.10;;;;;;4962517;28;95452;-55
2022/09/25 11:45:19;;;;;;;78.65;51.22;;;21.10;72.40;;;;;;4957642;28;96812;-54
2022/09/25 11:47:58;;;;;;;75.18;51.08;;;21.10;72.10;;;;;;4969643;28;96455;-52
2022/09/25 11:50:38;;;;;;;74.47;51.30;;;21.10;71.30;;;;;;4957709;28;96591;-53
2022/09/25 11:53:39;;;;;;;72.80;51.00;;;21.10;71.20;;;;;;4960149;28;95310;-50
2022/09/25 11:56:26;;;;;;;71.63;50.85;;;21.10;70.10;;;;;;4961210;28;95165;-50
2022/09/25 11:59:38;;;;;;;72.40;50.88;;;21.00;69.30;;;;;;4961327;28;94151;-50
2022/09/25 12:02:16;;;;;;;;;;;21.00;68.40;;;;;;4965353;28;95472;-55
2022/09/25 12:04:58;;;;;;;74.75;51.05;;;20.90;68.40;;;;;;4960057;28;95440;-49
2022/09/25 12:08:14;;;;;;;72.50;51.10;;;21.00;68.90;;;;;;4964261;28;97258;-50
2022/09/25 12:11:04;;;;;;;73.57;50.95;;;21.00;68.60;;;;;;4961751;28;95257;-50
2022/09/25 12:13:48;;;;;;;71.38;51.05;;;20.90;68.50;;;;;;4967863;28;95006;-50
2022/09/25 12:16:20;;;;;;;70.45;50.88;;;20.90;67.80;;;;;;4959165;28;96653;-52
2022/09/25 12:19:02;;;;;;;70.47;50.83;;;21.00;67.80;;;;;;4971392;28;97828;-51
2022/09/25 12:21:47;;;;;;;73.45;50.95;;;21.00;67.40;;;;;;4975262;28;95152;-51
2022/09/25 12:24:28;;;;;;;73.32;51.35;;;21.00;67.10;;;;;;4969630;28;94840;-48
2022/09/25 12:27:23;;;;;;;74.45;51.08;;;21.00;67.00;;;;;;4959121;28;95303;-52
2022/09/25 12:30:16;;;;;;;74.90;50.92;;;21.00;66.90;;;;;;4969281;28;95186;-48
2022/09/25 12:33:13;;;;;;;71.80;50.85;;;20.90;66.80;;;;;;4967899;28;95213;-51
2022/09/25 12:36:02;;;;;;;71.80;50.92;;;20.90;66.40;;;;;;4967379;28;96217;-52
2022/09/25 12:38:51;;;;;;;70.60;50.47;;;20.90;66.60;;;;;;4963789;28;97663;-51
2022/09/25 12:41:17;;;;;;;71.97;51.13;;;20.90;66.20;;;;;;4958823;28;95084;-52
2022/09/25 12:44:04;;;;;;;72.47;50.83;;;20.90;66.80;;;;;;4963100;28;95144;-50
2022/09/25 12:46:42;;;;;;;70.25;50.80;;;20.90;66.60;;;;;;4960117;28;95134;-52
2022/09/25 12:49:11;;;;;;;71.32;50.45;;;20.90;66.40;;;;;;4958016;28;100665;-49
2022/09/25 12:51:53;;;;;;;71.70;50.97;;;20.90;66.40;;;;;;4958688;28;96169;-49
2022/09/25 12:54:28;;;;;;;71.47;50.67;;;20.90;66.50;;;;;;4964641;28;94293;-54
2022/09/25 12:57:09;;;;;;;71.32;50.75;;;20.90;66.40;;;;;;4966328;28;95082;-50
2022/09/25 12:59:53;;;;;;;71.10;50.83;;;20.90;66.40;;;;;;4967291;28;95528;-49
2022/09/25 13:02:23;;;;;;;71.30;50.78;;;20.90;66.10;;;;;;4964757;28;96309;-55
2022/09/25 13:05:01;;;;;;;71.47;50.65;;;20.90;66.20;;;;;;4963355;28;98886;-51
2022/09/25 13:07:41;;;;;;;70.35;50.63;;;20.90;66.00;;;;;;4957832;28;95589;-50
2022/09/25 13:10:47;;;;;;;71.17;50.90;;;20.90;66.10;;;;;;4964453;28;95058;-49
2022/09/25 13:13:19;;;;;;;70.75;50.65;;;20.90;66.00;;;;;;4950929;28;99621;-57
2022/09/25 13:15:51;;;;;;;72.40;50.97;;;20.90;65.90;;;;;;4966396;28;95360;-50